logo
App data

Trino

Store | Hub | SteamDB
Developer: Trinoteam Publisher: LoadComplete
Genre: Casual, Indie
Languages: English
Tags: Indie (23), Casual (22)
Category: Single-player, Steam Achievements, Partial Controller Support, Steam Leaderboards
Release date: Jan 27, 2011
Price: $4.99
Owners: 0 .. 20,000
Followers: 0
YouTube stats: 438 views and 2 comments for videos uploaded last week, 2 new videos uploaded yesterday.
Playtime total: 02:37 (average) 03:04 (median)

Steam Spy is still in beta, so expect major bugs.

Owners data:

Access restricted.

This feature is only available to users with special access rights. Sorry.

If you want to proceed, you need to register or log in first and then back Steam Spy on Patreon. Look for Indie or Pro pledge.

Don't forget to use the same email as on Steam Spy!

Audience in 2 weeks:

Access restricted.

This feature is only available to users with special access rights. Sorry.

If you want to proceed, you need to register or log in first and then back Steam Spy on Patreon. Look for Indie or Pro pledge.

Don't forget to use the same email as on Steam Spy!

Peak daily concurrent players:

CCU data courtesy of SteamDB. Used with permission.

Hourly concurrent players:

YouTube:

The views data is based on top 50 videos uploaded last week. Actual number of views might be more than the number shown.

The displayed number of videos uploaded yesterday is limited to 50, so if there were more videos uploaded, the number will still show 50.

If the game has commonly used word as its name (like "FEAR" or "Volume") its number of Youtube views might be wrong.

Games similar to this one:

# Game Release date
Price
Score rank
(Userscore / Metascore)
Owners
Players
Playtime (Median)
1 Night Blights Apr 15, 2016 $4.99N/A (N/A)0 .. 20,0000%00:00 (00:00)
2 Quell May 14, 2015 $3.9998% (98%)0 .. 20,0000%00:00 (00:00)
3 Hidden in Plain Sight Jul 16, 2014 $5.99N/A (N/A)20,000 .. 50,0000%00:00 (00:00)
4 Luxor Evolved Mar 1, 2012 $9.99N/A (N/A)50,000 .. 100,0000%00:00 (00:00)
5 Hustle Cat Mar 16, 2016 $19.99N/A (N/A)20,000 .. 50,0000%00:00 (00:00)
6 Carrie's Order Up! Sep 12, 2016 $2.99N/A (N/A)0 .. 20,0000%00:00 (00:00)
7 Everyday Genius: SquareLogic Oct 21, 2009 $4.9996% (97%)0 .. 20,0000%00:00 (00:00)
8 HyperRogue Jan 16, 2015 $4.99N/A (N/A)20,000 .. 50,0000%00:00 (00:00)
9 Chip's Challenge 2 May 28, 2015 $4.99N/A (N/A)20,000 .. 50,0000%00:00 (00:00)
10 Moonlight Feb 5, 2016 $2.99N/A (N/A)0 .. 20,0000%00:00 (00:00)
11 Letter Quest: Grimm's Journey Nov 20, 2014 N/AN/A (N/A/73%)100,000 .. 200,0000%00:00 (00:00)
12 Unium Mar 27, 2015 $1.99N/A (N/A)20,000 .. 50,0000%00:00 (00:00)
13 A Good Snowman Is Hard To Build Feb 25, 2015 $9.99N/A (N/A)0 .. 20,0000%00:00 (00:00)
14 The Counting Kingdom Aug 5, 2014 $6.99N/A (N/A)0 .. 20,0000%00:00 (00:00)
15 Space Hole Sep 2, 2016 $0.99N/A (N/A)0 .. 20,0000%00:00 (00:00)
16 Goats on a Bridge Feb 6, 2015 $4.99N/A (N/A)50,000 .. 100,0000%00:00 (00:00)
17 [the Sequence] Mar 30, 2016 $1.99N/A (N/A)0 .. 20,0000%00:00 (00:00)
18 Prelogate Dec 10, 2014 $3.99N/A (N/A)0 .. 20,0000%00:00 (00:00)
19 Swapperoo Dec 18, 2015 $4.99N/A (N/A)0 .. 20,0000%00:00 (00:00)
20 Strata May 29, 2014 $3.9983% (93%)50,000 .. 100,0000%00:00 (00:00)
21 Girls Like Robots Feb 14, 2014 $6.99N/A (N/A)100,000 .. 200,0000%00:00 (00:00)
22 Gateways Sep 13, 2012 $4.99N/A (N/A/72%)50,000 .. 100,0003.45%03:52 (02:23)
23 Soundodger+ Oct 11, 2013 $7.99N/A (N/A/78%)50,000 .. 100,0000%00:00 (00:00)
24 Dots eXtreme Sep 13, 2016 $1.99N/A (N/A)20,000 .. 50,0000%00:00 (00:00)
25 Frog Climbers Oct 6, 2016 $6.99N/A (N/A)50,000 .. 100,0000%00:00 (00:00)
26 Triple Town Dec 6, 2012 $9.99N/A (N/A)50,000 .. 100,0000%00:00 (00:00)
27 Cloudberry Kingdom Aug 2, 2013 $9.99N/A (N/A/67%)20,000 .. 50,0000%00:00 (00:00)
28 Dream Car Builder Sep 22, 2016 $14.99N/A (N/A)0 .. 20,0000%00:00 (00:00)
29 Grapple Mar 9, 2015 $7.99N/A (N/A)20,000 .. 50,0000%00:00 (00:00)
30 Sokobond Jul 21, 2014 $9.99N/A (N/A/82%)50,000 .. 100,0000%00:00 (00:00)
31 Titans of Space 2.0 May 23, 2016 $7.99N/A (N/A)0 .. 20,0000%00:00 (00:00)
32 Unhack Jan 9, 2015 $3.99N/A (N/A)20,000 .. 50,0000%00:00 (00:00)
33 Windosill Sep 25, 2009 $2.9973% (91%)100,000 .. 200,0000%00:00 (00:00)
34 Mu Cartographer Aug 24, 2016 $4.99N/A (N/A)0 .. 20,0000%00:00 (00:00)
35 One Night Stand Nov 7, 2016 $2.99N/A (N/A)20,000 .. 50,0000%00:00 (00:00)
36 Oik 2 Mar 28, 2017 $0.99N/A (N/A)20,000 .. 50,0001.59%16:13 (05:24)
37 Earthtongue Apr 27, 2015 $4.99N/A (N/A)0 .. 20,0000%00:00 (00:00)
38 CarX Drift Racing Online Nov 17, 2017 $9.9973% (91%)50,000 .. 100,00020%00:28 (00:16)
39 Crayon Physics Deluxe May 6, 2009 $19.99N/A (N/A/79%)500,000 .. 1,000,0000%00:00 (00:00)
40 Koala Kids Jun 22, 2015 $0.99N/A (N/A)20,000 .. 50,0001.41%00:01 (00:00)
41 Tribloos 2 Jan 30, 2014 $0.99N/A (N/A)100,000 .. 200,0001.03%08:41 (05:47)
42 On Rusty Trails Jun 13, 2016 $12.9969% (90%/77%)50,000 .. 100,0003.57%12:42 (05:24)
43 LogiGun Jul 22, 2014 $4.99N/A (N/A)0 .. 20,0000%00:00 (00:00)
44 Cubot Jan 8, 2015 $1.99N/A (N/A)20,000 .. 50,0000%00:00 (00:00)
45 Dec 28, 2016 $9.99N/A (N/A)0 .. 20,0000%00:00 (00:00)
46 This Starry Midnight We Make Jun 1, 2015 $9.99N/A (N/A)0 .. 20,0000%00:00 (00:00)
47 PANORAMICAL Sep 17, 2015 $9.99N/A (N/A)0 .. 20,0000%00:00 (00:00)
48 Never give up! Dec 29, 2016 $2.99N/A (N/A)0 .. 20,0000%00:00 (00:00)
49 Parallax Mar 10, 2015 $9.99N/A (N/A/68%)0 .. 20,0000%00:00 (00:00)
50 The Reject Demon: Toko Chapter 0 Prelude May 8, 2015 $4.99N/A (N/A)0 .. 20,0000%00:00 (00:00)
51 Vampires: Guide Them to Safety! Oct 22, 2014 $4.99N/A (N/A)0 .. 20,0000%00:00 (00:00)
52 Forgotten, Not Lost - A Kinetic Novel Apr 1, 2016 $1.9965% (89%)100,000 .. 200,00016.07%04:16 (04:33)
53 Beyond Gravity Sep 23, 2014 $1.99N/A (N/A)20,000 .. 50,0000%00:00 (00:00)
54 Golf for Workgroups Apr 6, 2017 $4.99N/A (N/A)0 .. 20,0000%00:00 (00:00)
55 Glowfish Sep 30, 2011 $9.99N/A (N/A)20,000 .. 50,0000%00:00 (00:00)
56 Bob Was Hungry Aug 19, 2015 $9.99N/A (N/A)20,000 .. 50,0002.7%03:58 (01:54)
57 Thrillville: Off the Rails Jul 8, 2009 $9.9962% (88%/70%)20,000 .. 50,0000%00:00 (00:00)
58 The Shape Of Heart Oct 25, 2016 $2.99N/A (N/A)0 .. 20,0000%00:00 (00:00)
59 12 Labours of Hercules V: Kids of Hellas (Platinum Edition) Jun 17, 2016 $2.99N/A (N/A)20,000 .. 50,0000%00:00 (00:00)
60 Masochisia Oct 9, 2015 $7.99N/A (N/A/68%)0 .. 20,0000%00:00 (00:00)
61 PixelJunk Eden Feb 2, 2012 $9.99N/A (N/A/81%)200,000 .. 500,0000.62%01:46 (00:35)
62 Cursed Sight Aug 3, 2015 $5.99N/A (N/A)0 .. 20,0000%00:00 (00:00)
63 Spy Chameleon - RGB Agent Jun 11, 2014 $4.99N/A (N/A)50,000 .. 100,0000%00:00 (00:00)
64 Asphyxia Aug 4, 2015 $5.99N/A (N/A)20,000 .. 50,0000%00:00 (00:00)
65 CrossCells May 26, 2017 $2.99N/A (N/A)20,000 .. 50,0000%00:00 (00:00)
66 Sophie's Curse Mar 16, 2016 $1.49N/A (N/A)20,000 .. 50,0001.09%00:01 (00:00)
67 Army of Pixels Oct 29, 2015 $4.99N/A (N/A)0 .. 20,0000%00:00 (00:00)
68 Sym May 7, 2015 $7.99N/A (N/A/61%)0 .. 20,0000%00:00 (00:00)
69 Dead Man's Draw Feb 6, 2014 $6.99N/A (N/A)20,000 .. 50,0000%00:00 (00:00)
70 BAD END Nov 25, 2015 $1.99N/A (N/A)0 .. 20,0000%00:00 (00:00)
71 Surfingers Jan 27, 2016 $1.99N/A (N/A)50,000 .. 100,0000.57%00:01 (00:00)
72 The Treasures of Montezuma 4 May 16, 2014 $6.99N/A (N/A)20,000 .. 50,0000%00:00 (00:00)
73 Magma Tsunami Jun 1, 2016 $0.99N/A (N/A)100,000 .. 200,0000%00:00 (00:00)
74 Crash Drive 2 May 28, 2015 $4.9949% (84%)50,000 .. 100,0000%00:00 (00:00)
75 Governor of Poker 2 - Premium Edition Oct 11, 2010 $14.9949% (84%)20,000 .. 50,0000%00:00 (00:00)
76 Sentinel 4: Dark Star Aug 13, 2015 $6.99N/A (N/A)0 .. 20,0000%00:00 (00:00)
77 Dominique Pamplemousse Mar 11, 2014 $0.9949% (84%/62%)20,000 .. 50,0000%00:00 (00:00)
78 RePete Mar 9, 2016 $1.99N/A (N/A)20,000 .. 50,0001.92%04:15 (01:25)
79 Cute Things Dying Violently Sep 2, 2015 $2.99N/A (N/A)0 .. 20,0000%00:00 (00:00)
80 Auditorium Feb 28, 2012 $6.99N/A (N/A)50,000 .. 100,0000%00:00 (00:00)
81 Gridworld Dec 24, 2015 $0.99N/A (N/A)0 .. 20,0000%00:00 (00:00)
82 Cyto Jul 10, 2014 $3.99N/A (N/A)20,000 .. 50,0000%00:00 (00:00)
83 Asteroids Minesweeper Jul 8, 2016 $1.99N/A (N/A)0 .. 20,0000%00:00 (00:00)
84 ISLANDS: Non-Places Nov 17, 2016 $4.99N/A (N/A)0 .. 20,0000%00:00 (00:00)
85 SnakEscape Feb 12, 2016 $1.59N/A (N/A)0 .. 20,0000%00:00 (00:00)
86 Steam and Metal Feb 9, 2015 $4.99N/A (N/A)0 .. 20,0002.94%02:55 (00:58)
87 Masky Dec 16, 2016 $0.99N/A (N/A)0 .. 20,0000%00:00 (00:00)
88 Satellite Repairman Feb 2, 2017 $3.99N/A (N/A)0 .. 20,0000%00:00 (00:00)
89 Blocks That Matter Aug 19, 2011 $4.99N/A (N/A/72%)200,000 .. 500,0000%00:00 (00:00)
90 Gravity Cat Jul 13, 2016 $2.99N/A (N/A)20,000 .. 50,0001.96%00:01 (00:00)
91 The Floor is Jelly May 30, 2014 $9.99N/A (N/A/83%)20,000 .. 50,0000%00:00 (00:00)
92 Job the Leprechaun Jul 31, 2015 $0.99N/A (N/A)20,000 .. 50,0001.65%02:08 (01:25)
93 Stay Alight Mar 2, 2015 $3.99N/A (N/A)20,000 .. 50,0000%00:00 (00:00)
94 Space Drifters 2D Mar 28, 2016 $0.99N/A (N/A)0 .. 20,0000%00:00 (00:00)
95 Collisions Jul 28, 2015 $3.99N/A (N/A)20,000 .. 50,0000%00:00 (00:00)
96 Star Sky - Oct 23, 2015 $3.99N/A (N/A)0 .. 20,0000%00:00 (00:00)
97 Feesh Feb 1, 2016 $0.99N/A (N/A)0 .. 20,0000%00:00 (00:00)
98 Timore 5 Aug 25, 2016 $7.99N/A (N/A)0 .. 20,0000%00:00 (00:00)
99 Fantastic Contraption Apr 5, 2016 $19.99N/A (N/A)100,000 .. 200,0007.14%00:01 (00:00)
100 Blueprint Tycoon May 13, 2016 $2.99N/A (N/A)50,000 .. 100,0000%00:00 (00:00)
101 Terraform May 8, 2015 $2.99N/A (N/A)0 .. 20,0000%00:00 (00:00)
102 Automation - The Car Company Tycoon Game Mar 12, 2015 $29.9938% (79%)50,000 .. 100,00012.5%06:43 (02:14)
103 Farm Frenzy 4 Apr 29, 2014 $6.9938% (79%)20,000 .. 50,0000%00:00 (00:00)
104 Farm for your Life Jun 16, 2014 $9.99N/A (N/A)20,000 .. 50,0000%00:00 (00:00)
105 Fate Tectonics Sep 9, 2015 $0.99N/A (N/A)0 .. 20,0000%00:00 (00:00)
106 Particulars Nov 19, 2014 $5.99N/A (N/A/74%)20,000 .. 50,0000%00:00 (00:00)
107 Sig.NULL Sep 27, 2016 $1.99N/A (N/A)100,000 .. 200,0000%00:00 (00:00)
108 Rescue Team 5 Nov 18, 2015 $1.99N/A (N/A)20,000 .. 50,0000%00:00 (00:00)
109 Until I Have You Apr 4, 2016 $2.09N/A (N/A)0 .. 20,0000%00:00 (00:00)
110 Ancients of Ooga May 20, 2011 $9.99N/A (N/A)20,000 .. 50,0000%00:00 (00:00)
111 PRINCIPIA: Master of Science Sep 9, 2016 $9.99N/A (N/A)0 .. 20,0000%00:00 (00:00)
112 Whirligig VR Media Player Apr 3, 2016 $3.99N/A (N/A)20,000 .. 50,00011.11%00:36 (00:12)
113 SinaRun Oct 26, 2015 $2.99N/A (N/A)0 .. 20,0007.14%01:12 (00:24)
114 Crazy Plant Shop Aug 4, 2014 $4.99N/A (N/A)20,000 .. 50,0000%00:00 (00:00)
115 Caravanserail Mar 10, 2016 $2.99N/A (N/A)0 .. 20,0001.59%03:00 (01:00)
116 Pretentious Game May 20, 2014 $1.99N/A (N/A)20,000 .. 50,0000%00:00 (00:00)
117 Pixel Puzzles 2: Birds Feb 20, 2015 $9.99N/A (N/A)100,000 .. 200,0000.43%00:31 (00:10)
118 Puzzler World 2 Oct 24, 2011 $4.99N/A (N/A)20,000 .. 50,0000%00:00 (00:00)
119 The Deletion Jul 30, 2015 $1.99N/A (N/A)20,000 .. 50,0000%00:00 (00:00)
120 Beeftacular Aug 26, 2016 $2.99N/A (N/A)0 .. 20,0000%00:00 (00:00)
121 Dodge Mar 16, 2015 $1.99N/A (N/A)0 .. 20,0000%00:00 (00:00)
122 Pythagoria Jan 22, 2016 $1.9931% (75%)0 .. 20,0000%00:00 (00:00)
123 Where are my Internets? Dec 16, 2016 $2.99N/A (N/A)0 .. 20,0000%00:00 (00:00)
124 Access Denied Dec 16, 2016 $2.9931% (75%)0 .. 20,0000%00:00 (00:00)
125 Heroic Dungeon Jun 21, 2017 $3.99N/A (N/A)0 .. 20,0000%00:00 (00:00)
126 Kombine Oct 14, 2016 $0.9931% (75%)20,000 .. 50,0000%00:00 (00:00)
127 Prehistoric Tales May 26, 2016 $1.49N/A (N/A)0 .. 20,0000%00:00 (00:00)
128 Riddles Of The Past Jul 22, 2016 $6.99N/A (N/A)0 .. 20,0000%00:00 (00:00)
129 Smooth Operators Jun 10, 2014 $2.99N/A (N/A)20,000 .. 50,0000%00:00 (00:00)
130 Totally Unbalanced Jul 29, 2016 $2.99N/A (N/A)0 .. 20,0003.23%01:50 (00:36)
131 Bunny Hop League Apr 27, 2017 $5.99N/A (N/A)20,000 .. 50,0000%00:00 (00:00)
132 Over The Void Nov 11, 2014 $0.99N/A (N/A)20,000 .. 50,0000%00:00 (00:00)
133 Point Perfect Jul 17, 2014 $4.99N/A (N/A)20,000 .. 50,0000%00:00 (00:00)
134 MOAI 2: Path to Another World Jul 16, 2015 $7.99N/A (N/A)0 .. 20,0000%00:00 (00:00)
135 Sportsfriends Dec 19, 2014 $14.99N/A (N/A)20,000 .. 50,0000%00:00 (00:00)
136 ConflictCraft Dec 8, 2016 $1.49N/A (N/A)20,000 .. 50,0000%00:00 (00:00)
137 Viking Brothers Apr 23, 2014 $9.99N/A (N/A)0 .. 20,0000%00:00 (00:00)
138 Lift It Jan 20, 2017 $4.99N/A (N/A)20,000 .. 50,0000%00:00 (00:00)
139 JiPS Apr 19, 2016 $2.99N/A (N/A)50,000 .. 100,0002.44%03:47 (04:20)
140 Crashed Lander Feb 4, 2015 $0.99N/A (N/A)0 .. 20,0000%00:00 (00:00)
141 Farm Frenzy: Hurricane Season Jul 3, 2015 $6.99N/A (N/A)0 .. 20,0000%00:00 (00:00)
142 Zipple World Jan 19, 2016 $4.99N/A (N/A)0 .. 20,0000%00:00 (00:00)
143 Luxor: 5th Passage Jan 25, 2011 $9.99N/A (N/A)20,000 .. 50,0000%00:00 (00:00)
144 Laserlife Sep 22, 2015 $14.99N/A (N/A)0 .. 20,0000%00:00 (00:00)
145 InFlux Sep 18, 2013 $9.99N/A (N/A)50,000 .. 100,0000%00:00 (00:00)
146 Racecraft Mar 4, 2016 $19.99N/A (N/A)20,000 .. 50,0000%00:00 (00:00)
147 Typefighters (Steam Edition) Apr 18, 2016 $1.99N/A (N/A)0 .. 20,0008.33%03:04 (01:01)
148 Music Inside: A VR Rhythm Game Sep 5, 2016 $9.99N/A (N/A)0 .. 20,0000%00:00 (00:00)
149 Super Lemonade Factory Jul 9, 2014 $4.99N/A (N/A)0 .. 20,0000%00:00 (00:00)
150 Pester Aug 21, 2015 $0.99N/A (N/A)100,000 .. 200,0001.07%02:38 (02:13)
151 Axel & Pixel Oct 6, 2010 $4.99N/A (N/A)0 .. 20,0000%00:00 (00:00)
152 Strategy & Tactics: Dark Ages Aug 4, 2017 $14.99N/A (N/A)20,000 .. 50,0002.86%02:23 (00:49)
153 Lunnye Devitsy Jul 1, 2009 $4.99N/A (N/A)20,000 .. 50,0000%00:00 (00:00)
154 Cibele Nov 2, 2015 $8.99N/A (N/A/71%)50,000 .. 100,0000%00:00 (00:00)
155 CrossWorlds: Escape Oct 12, 2016 $14.99N/A (N/A)0 .. 20,0000%00:00 (00:00)
156 Castles Oct 9, 2015 $1.94N/A (N/A)0 .. 20,0000%00:00 (00:00)
157 Quantz Sep 3, 2009 $9.99N/A (N/A/67%)20,000 .. 50,0000%00:00 (00:00)
158 1931: Scheherazade at the Library of Pergamum Mar 26, 2015 $24.99N/A (N/A)0 .. 20,0000%00:00 (00:00)
159 Love in the Glen Jun 8, 2016 $5.99N/A (N/A)0 .. 20,0003.39%02:04 (00:42)
160 Marble Duel Nov 12, 2015 $4.99N/A (N/A)100,000 .. 200,0001.87%01:21 (00:54)
161 Hospitalize Sep 21, 2016 $15.99N/A (N/A)0 .. 20,0000%00:00 (00:00)
162 Storm Jun 27, 2013 $9.99N/A (N/A/63%)20,000 .. 50,0000%00:00 (00:00)
163 Mind Games Mar 4, 2016 $2.99N/A (N/A)0 .. 20,0000%00:00 (00:00)
164 Reach for the Sun Nov 7, 2013 $4.99N/A (N/A)20,000 .. 50,0000%00:00 (00:00)
165 Wildlife Park 2 - Horses Jul 17, 2014 $3.99N/A (N/A)20,000 .. 50,0000%00:00 (00:00)
166 One Last Chance Apr 7, 2016 $3.99N/A (N/A)0 .. 20,0003.28%01:49 (00:42)
167 Our Love Will Grow Dec 4, 2015 $4.99N/A (N/A)20,000 .. 50,0000%00:00 (00:00)
168 Herding Dog Jan 15, 2016 $2.99N/A (N/A)0 .. 20,0000%00:00 (00:00)
169 Mines of Mars Dec 18, 2015 $6.99N/A (N/A)0 .. 20,0000%00:00 (00:00)
170 Painters Guild Sep 1, 2015 $9.9919% (65%)20,000 .. 50,0000%00:00 (00:00)
171 Restaurant Empire II May 27, 2009 $19.99N/A (N/A/64%)50,000 .. 100,0000%00:00 (00:00)
172 Winexy Jan 13, 2017 $0.99N/A (N/A)20,000 .. 50,0000%00:00 (00:00)
173 Highborn Feb 19, 2013 $1.99N/A (N/A)0 .. 20,0000%00:00 (00:00)
174 Meadowland Oct 22, 2014 $3.99N/A (N/A)0 .. 20,0000%00:00 (00:00)
175 The Treasures of Montezuma 3 Oct 16, 2014 $3.99N/A (N/A)0 .. 20,0000%00:00 (00:00)
176 Pixel Survivors May 5, 2016 $0.99N/A (N/A)50,000 .. 100,0000%00:00 (00:00)
177 Annie Amber Jun 17, 2016 $1.19N/A (N/A)0 .. 20,0000%00:00 (00:00)
178 Goodnight Butcher Dec 18, 2015 $1.99N/A (N/A)20,000 .. 50,0000%00:00 (00:00)
179 Power of Love Jul 21, 2015 $4.99N/A (N/A)20,000 .. 50,0000%00:00 (00:00)
180 Metrocide Dec 15, 2014 $12.99N/A (N/A/68%)50,000 .. 100,0000%00:00 (00:00)
181 Poltergeist: A Pixelated Horror Oct 20, 2014 $7.99N/A (N/A/70%)0 .. 20,0000%00:00 (00:00)
182 Boss Monster Apr 28, 2016 $4.99N/A (N/A)20,000 .. 50,0000%00:00 (00:00)
183 Dance Magic Feb 15, 2016 $9.99N/A (N/A)0 .. 20,0000%00:00 (00:00)
184 Party Saboteurs Oct 20, 2016 $9.99N/A (N/A)0 .. 20,0000%00:00 (00:00)
185 Bunny & Piggy Nov 30, 2016 $0.99N/A (N/A)50,000 .. 100,00013.38%03:58 (04:15)
186 Way of Gold and Steel Aug 17, 2015 $8.99N/A (N/A)20,000 .. 50,0000%00:00 (00:00)
187 Wildlife Park 3 May 12, 2014 $9.9910% (56%)50,000 .. 100,0000%00:00 (00:00)
188 Chunks Apr 11, 2016 $19.99N/A (N/A)20,000 .. 50,0000%00:00 (00:00)
189 Wildlife Park 2 - Dino World Jul 17, 2014 $3.99N/A (N/A)20,000 .. 50,0000%00:00 (00:00)
190 StarFringe: Adversus Apr 4, 2016 N/AN/A (N/A)20,000 .. 50,0000%00:00 (00:00)
191 Backgammon Blitz Nov 12, 2015 $3.99N/A (N/A)0 .. 20,0000%00:00 (00:00)
192 Sky to Fly: Soulless Leviathan Jul 22, 2016 $3.99N/A (N/A)0 .. 20,0000%00:00 (00:00)
193 The Good Life Nov 21, 2014 $9.99N/A (N/A)0 .. 20,0000%00:00 (00:00)
194 Gravi Oct 8, 2013 $4.99N/A (N/A)20,000 .. 50,0000%00:00 (00:00)
195 Luke Sidewalker Dec 5, 2016 $0.99N/A (N/A)50,000 .. 100,0000%00:00 (00:00)
196 Reptilian Rebellion Aug 7, 2016 $0.99N/A (N/A)20,000 .. 50,0001.02%02:52 (00:57)
197 Drizzlepath Mar 12, 2015 $2.99N/A (N/A)0 .. 20,0000%00:00 (00:00)
198 Townopolis Apr 27, 2016 $3.99N/A (N/A)20,000 .. 50,0003.66%03:06 (02:19)
199 Rolling Shapes Jun 8, 2015 $0.99N/A (N/A)0 .. 20,0000%00:00 (00:00)
200 Color Syndrome Aug 1, 2016 $0.99N/A (N/A)20,000 .. 50,0000%00:00 (00:00)
201 Pointless Feb 22, 2016 FreeN/A (N/A)0 .. 20,0000%00:00 (00:00)
202 Astro Emporia Feb 2, 2015 $0.99N/A (N/A)0 .. 20,0000%00:00 (00:00)
203 Pressured Jul 18, 2014 $2.99N/A (N/A)200,000 .. 500,0000.5%02:09 (01:25)
204 Cosmonautica Jul 31, 2015 $9.99N/A (N/A)100,000 .. 200,0000%00:00 (00:00)
205 Arctic alive Jan 29, 2016 $1.99N/A (N/A)0 .. 20,0000%00:00 (00:00)
206 Rage Runner May 16, 2014 $4.99N/A (N/A)20,000 .. 50,0000%00:00 (00:00)
207 Fiery Disaster Nov 7, 2016 $1.99N/A (N/A)0 .. 20,0009.52%02:03 (00:45)
208 Quantum Rush Champions Dec 4, 2014 $9.99N/A (N/A)20,000 .. 50,0000%00:00 (00:00)
209 Rigonauts Aug 7, 2012 $9.99N/A (N/A/60%)20,000 .. 50,0000%00:00 (00:00)
210 The Dolls: Reborn May 25, 2016 $4.99N/A (N/A)50,000 .. 100,0000%00:00 (00:00)
211 Melting Hearts: Our Love Will Grow 2 Apr 29, 2016 $4.99N/A (N/A)0 .. 20,0000%00:00 (00:00)
212 Wildlife Park 2 - Fantasy Jul 17, 2014 $0.79N/A (N/A)20,000 .. 50,0000%00:00 (00:00)
213 Weapons Genius Jul 8, 2015 $4.99N/A (N/A)100,000 .. 200,0000.43%00:09 (00:03)
214 Ninja Stealth 2 Jan 30, 2017 $0.49N/A (N/A)0 .. 20,0000%00:00 (00:00)
215 Farm Life: Natures Adventure Aug 23, 2016 $0.99N/A (N/A)20,000 .. 50,0000%00:00 (00:00)
216 Autumn May 14, 2016 $2.99N/A (N/A)50,000 .. 100,0000%00:00 (00:00)
217 Red Goblin: Cursed Forest May 15, 2015 $4.99N/A (N/A)20,000 .. 50,0000%00:00 (00:00)
218 Castle Jan 7, 2015 $4.99N/A (N/A)50,000 .. 100,0000%00:00 (00:00)
219 Economic Conquest May 24, 2017 $4.99N/A (N/A)0 .. 20,0000%00:00 (00:00)
220 Oil Enterprise Apr 20, 2016 $19.995% (44%)0 .. 20,0000%00:00 (00:00)
221 Arcadia Dec 2, 2010 $4.995% (44%)0 .. 20,0000%00:00 (00:00)
222 iREC Jan 16, 2017 Free4% (43%)20,000 .. 50,0005.98%04:00 (04:25)
223 Evolution Jun 6, 2016 FreeN/A (N/A)0 .. 20,0000%00:00 (00:00)
224 Burst Mar 14, 2016 $1.99N/A (N/A)100,000 .. 200,0000%00:00 (00:00)
225 Streets of Chaos Jan 28, 2015 $0.99N/A (N/A)100,000 .. 200,0000%00:00 (00:00)
226 Mech Marines: Steel March Jan 9, 2015 $7.99N/A (N/A)0 .. 20,0000%00:00 (00:00)
227 Don't Chat With Strangers Jan 6, 2017 $4.993% (37%)0 .. 20,0000%00:00 (00:00)
228 Hippocampal: The White Sofa May 27, 2014 $4.99N/A (N/A)0 .. 20,0000%00:00 (00:00)
229 Hide and Secret Treasure of the Ages Jun 17, 2016 $0.98N/A (N/A)0 .. 20,0000%00:00 (00:00)
230 The Legions of Rome Sep 13, 2016 $2.99N/A (N/A)0 .. 20,0000%00:00 (00:00)
231 Labyrinth Simulator Sep 21, 2015 $4.99N/A (N/A)0 .. 20,0000%00:00 (00:00)
232 Robot vs Birds Zombies Jul 23, 2015 $0.99N/A (N/A)0 .. 20,0000%00:00 (00:00)
233 Galcon Legends Jan 13, 2014 $4.99N/A (N/A)100,000 .. 200,0000%00:00 (00:00)
234 The Housewife Aug 25, 2016 $4.99N/A (N/A)200,000 .. 500,0000.27%04:40 (01:33)
235 Triangle Jan 30, 2017 $1.99N/A (N/A)100,000 .. 200,0009.09%03:39 (04:00)
236 Age of Castles: Warlords May 15, 2015 $1.99N/A (N/A)0 .. 20,0000%00:00 (00:00)
237 Wolf Simulator Nov 16, 2016 $3.99N/A (N/A)50,000 .. 100,0000.57%04:17 (01:25)
238 Stickmageddon May 18, 2017 $0.99N/A (N/A)20,000 .. 50,0000%00:00 (00:00)

Owners of this game also own:

Access restricted.

This feature is only available to users with special access rights. Sorry.

If you want to proceed, you need to register or log in first and then back Steam Spy on Patreon. Look for Indie or Pro pledge.

Don't forget to use the same email as on Steam Spy!

Playtime distribution:

Access restricted.

This feature is only available to users with special access rights. Sorry.

If you want to proceed, you need to register or log in first and then back Steam Spy on Patreon. Look for Indie or Pro pledge.

Don't forget to use the same email as on Steam Spy!

Playtime (2 weeks):

Access restricted.

This feature is only available to users with special access rights. Sorry.

If you want to proceed, you need to register or log in first and then back Steam Spy on Patreon. Look for Indie or Pro pledge.

Don't forget to use the same email as on Steam Spy!

User reviews:

Login required.

Please register or log in to see this information.